Aeroporto :
LOGIN :

Iscrizione | Disclaimer

   EN    FR    IT 

 










Sommario :    VFR   VFR Marginale   IFR   IFR Intensivo   IFR Molto Intensivo
Visibilità : 
Base nubi : 
>= 8 km
>= 3000ft
5 / 8 km
1000 / 3000 ft
1500m / 5 km
500 / 1000 ft
800 / 1500m
200 / 500 ft
< 800m
< 200 ft
Simboli :   Temporali  Nebbia  Neve Forte  Precipitazioni Forti  Vento > 20 kt
SIGMETs :   Varie  Temporali  Ghiacco  Turbolenza  Onda orograficha  Ceneri Vulcaniche






- Altitudine del aeroporto : 376 ft


LHKE - Kecskemét

ULTIMO METAR :
  • 162315Z 13006KT CAVOK 12/08 Q1017 RMK BLU

METARs OBSOLETI :
  • 162245Z 12006KT CAVOK 12/08 Q1017 NOSIG RMK BLU
  • 162215Z 12008KT CAVOK 12/09 Q1017 NOSIG RMK BLU
  • 162145Z 12008KT CAVOK 12/09 Q1016 NOSIG RMK BLU
  • 162115Z 12008KT CAVOK 13/09 Q1017 NOSIG RMK BLU
  • 162045Z 12006KT CAVOK 12/09 Q1017 NOSIG RMK BLU

TAF TAF LHKE
Valido dal 17 a 00 ore il 17 a 09 ore UTC


162315Z 1700/1709 11006KT CAVOK
BECMG 1706/1709 13012KT



MetMap, La meteo Aeronautica in un colpo d'occhio ! - Copyright ORBIFLY Dicembre 2007 - Disclaimer

ORBIFLY MET'MAP TEAM :

Programmazione e sviluppo : Alexandra Zaïnal
Concezione e sviluppo : Baudouin d'Aumeries
Co-Programmazione e sviluppo : Marc-Olivier Méhu
Supporto tecnico e logistico : Manuel Goepfert
Aiuto per la traduzione : Arnaldo La Scala

Contatto : metmap@orbifly.com




FONTI E CREDITI :

   NOAA